createdAt,value
2023-08-23T00:00:26.335Z,3.17
2023-08-23T00:02:53.302Z,2.60
2023-08-23T00:05:20.255Z,2.60
2023-08-23T00:07:47.345Z,2.45
2023-08-23T00:10:14.476Z,2.40
2023-08-23T00:12:41.434Z,2.00
2023-08-23T00:15:08.681Z,2.85
2023-08-23T00:17:35.935Z,2.75
2023-08-23T00:20:03.209Z,2.30
2023-08-23T00:22:30.109Z,2.40
2023-08-23T00:24:56.961Z,2.10
2023-08-23T00:27:23.938Z,1.80
2023-08-23T00:29:50.893Z,2.22
2023-08-23T00:32:17.792Z,1.98
2023-08-23T00:34:44.697Z,2.38
2023-08-23T00:37:11.576Z,2.22
2023-08-23T00:39:38.461Z,2.70
2023-08-23T00:42:05.534Z,2.47
2023-08-23T00:44:32.511Z,2.75
2023-08-23T00:47:00.107Z,2.50
2023-08-23T00:49:27.146Z,2.50
2023-08-23T00:51:54.767Z,2.30
2023-08-23T00:54:22.325Z,2.30
2023-08-23T00:56:50.038Z,2.92
2023-08-23T00:59:17.407Z,2.67
2023-08-23T01:01:44.434Z,2.70
2023-08-23T01:04:11.396Z,2.20
2023-08-23T01:07:12.311Z,2.45
2023-08-23T01:10:00.465Z,2.28
2023-08-23T01:12:39.766Z,2.45
2023-08-23T01:15:14.439Z,2.57
2023-08-23T01:17:44.213Z,2.70
2023-08-23T01:20:15.801Z,2.35
2023-08-23T01:22:49.314Z,2.47
2023-08-23T01:25:16.325Z,2.42
2023-08-23T01:27:56.626Z,2.40
2023-08-23T01:30:27.114Z,2.53
2023-08-23T01:33:07.145Z,2.10
2023-08-23T01:36:07.418Z,2.25
2023-08-23T01:41:03.118Z,2.10
2023-08-23T01:43:30.163Z,2.38
2023-08-23T01:45:57.102Z,2.10
2023-08-23T01:48:24.163Z,2.28
2023-08-23T01:50:52.316Z,2.05
2023-08-23T01:53:19.312Z,2.47
2023-08-23T01:55:46.768Z,3.17
2023-08-23T01:58:13.691Z,2.20
2023-08-23T02:00:40.585Z,2.88
2023-08-23T02:03:07.560Z,2.88
2023-08-23T02:05:34.612Z,2.72
2023-08-23T02:08:01.480Z,2.80
2023-08-23T02:10:28.346Z,2.50
2023-08-23T02:12:55.734Z,2.75
2023-08-23T02:15:22.714Z,2.95
2023-08-23T02:17:51.494Z,2.80
2023-08-23T02:20:18.444Z,2.72
2023-08-23T02:22:45.299Z,2.42
2023-08-23T02:25:12.167Z,2.55
2023-08-23T02:27:39.082Z,2.65
2023-08-23T02:30:06.804Z,2.72
2023-08-23T02:32:35.207Z,2.33
2023-08-23T02:35:03.544Z,2.90
2023-08-23T02:37:30.442Z,2.63
2023-08-23T02:39:59.293Z,2.47
2023-08-23T02:42:26.710Z,2.33
2023-08-23T02:44:53.562Z,2.83
2023-08-23T02:47:20.450Z,2.60
2023-08-23T02:49:47.873Z,2.47
2023-08-23T02:52:15.066Z,3.00
2023-08-23T02:54:41.890Z,2.97
2023-08-23T02:57:08.897Z,2.88
2023-08-23T02:59:35.863Z,2.92
2023-08-23T03:02:02.807Z,3.10
2023-08-23T03:04:30.322Z,3.08
2023-08-23T03:06:57.298Z,2.67
2023-08-23T03:09:24.204Z,3.03
2023-08-23T03:11:51.085Z,4.00
2023-08-23T03:14:18.075Z,2.70
2023-08-23T03:16:45.021Z,2.85
2023-08-23T03:19:12.056Z,3.13
2023-08-23T03:21:39.042Z,2.47
2023-08-23T03:24:06.745Z,2.53
2023-08-23T03:26:33.726Z,2.90
2023-08-23T03:29:00.672Z,2.78
2023-08-23T03:31:27.869Z,2.60
2023-08-23T03:33:54.943Z,2.22
2023-08-23T03:36:22.925Z,2.90
2023-08-23T03:38:49.987Z,3.17
2023-08-23T03:41:17.143Z,2.35
2023-08-23T03:43:44.095Z,2.55
2023-08-23T03:46:11.014Z,2.45
2023-08-23T03:48:37.983Z,2.50
2023-08-23T03:51:04.946Z,2.17
2023-08-23T03:53:31.969Z,2.25
2023-08-23T03:55:59.525Z,2.75
2023-08-23T03:58:26.620Z,2.55
2023-08-23T04:00:54.516Z,3.33
2023-08-23T04:03:21.942Z,2.95
2023-08-23T04:05:49.342Z,2.88
2023-08-23T04:08:17.798Z,2.65
2023-08-23T04:10:51.884Z,2.67
2023-08-23T04:13:19.057Z,2.55
2023-08-23T04:15:46.519Z,3.13
2023-08-23T04:18:13.744Z,2.58
2023-08-23T04:20:42.368Z,3.08
2023-08-23T04:23:09.515Z,2.80
2023-08-23T04:25:36.525Z,2.40
2023-08-23T04:28:03.421Z,2.63
2023-08-23T04:30:31.098Z,3.08
2023-08-23T04:32:58.800Z,2.78
2023-08-23T04:35:26.739Z,2.78
2023-08-23T04:37:53.625Z,2.67
2023-08-23T04:40:21.440Z,2.78
2023-08-23T04:42:48.328Z,2.53
2023-08-23T04:45:15.290Z,2.92
2023-08-23T04:47:43.525Z,2.65
2023-08-23T04:50:10.569Z,3.10
2023-08-23T04:52:37.539Z,2.78
2023-08-23T04:55:05.885Z,2.72
2023-08-23T04:57:33.847Z,2.65
2023-08-23T05:00:01.856Z,3.05
2023-08-23T05:02:29.053Z,2.63
2023-08-23T05:04:57.060Z,3.40
2023-08-23T05:07:24.043Z,2.65
2023-08-23T05:09:50.898Z,2.55
2023-08-23T05:12:17.961Z,2.90
2023-08-23T05:14:46.072Z,3.13
2023-08-23T05:17:17.128Z,3.05
2023-08-23T05:19:44.159Z,3.50
2023-08-23T05:22:11.580Z,3.00
2023-08-23T05:24:38.504Z,3.03
2023-08-23T05:27:05.474Z,2.85
2023-08-23T05:29:32.880Z,2.58
2023-08-23T05:32:39.139Z,2.83
2023-08-23T05:35:06.284Z,3.08
2023-08-23T05:37:33.152Z,2.58
2023-08-23T05:40:00.179Z,2.75
2023-08-23T05:42:27.173Z,2.85
2023-08-23T05:44:54.125Z,3.17
2023-08-23T05:47:21.006Z,3.22
2023-08-23T05:49:47.967Z,3.97
2023-08-23T05:52:15.114Z,4.78
2023-08-23T05:54:42.700Z,3.40
2023-08-23T05:57:09.622Z,3.67
2023-08-23T05:59:36.464Z,4.60
2023-08-23T06:02:03.438Z,3.65
2023-08-23T06:04:30.349Z,3.97
2023-08-23T06:06:57.253Z,4.65
2023-08-23T06:09:24.202Z,4.18
2023-08-23T06:11:51.015Z,4.78
2023-08-23T06:14:19.947Z,4.00
2023-08-23T06:16:47.418Z,5.00
2023-08-23T06:19:14.428Z,4.90
2023-08-23T06:21:41.969Z,4.38
2023-08-23T06:24:09.402Z,4.28
2023-08-23T06:26:36.441Z,3.97
2023-08-23T06:29:04.673Z,4.68
2023-08-23T06:31:32.015Z,4.78
2023-08-23T06:33:59.498Z,4.82
2023-08-23T06:36:26.512Z,5.60
2023-08-23T06:38:53.385Z,4.97
2023-08-23T06:41:20.317Z,5.00
2023-08-23T06:43:49.030Z,6.40
2023-08-23T06:46:16.011Z,6.97
2023-08-23T06:48:43.133Z,6.30
2023-08-23T06:51:10.054Z,5.68
2023-08-23T06:53:36.909Z,7.88
2023-08-23T06:56:04.805Z,7.32
2023-08-23T06:58:31.708Z,6.35
2023-08-23T07:00:58.794Z,6.72
2023-08-23T07:03:25.973Z,7.93
2023-08-23T07:05:53.067Z,6.97
2023-08-23T07:08:19.995Z,6.85
2023-08-23T07:10:46.845Z,7.43
2023-08-23T07:13:13.739Z,8.52
2023-08-23T07:15:41.898Z,7.82
2023-08-23T07:18:09.638Z,7.47
2023-08-23T07:20:36.610Z,8.35
2023-08-23T07:23:04.243Z,8.38
2023-08-23T07:25:31.431Z,7.90
2023-08-23T07:27:58.315Z,7.60
2023-08-23T07:30:25.225Z,8.60
2023-08-23T07:32:52.242Z,8.30
2023-08-23T07:35:19.160Z,9.43
2023-08-23T07:37:46.423Z,8.82
2023-08-23T07:40:13.720Z,10.43
2023-08-23T07:42:42.830Z,10.27
2023-08-23T07:45:10.468Z,11.20
2023-08-23T07:47:37.612Z,9.65
2023-08-23T07:50:05.042Z,10.35
2023-08-23T07:52:32.027Z,11.45
2023-08-23T07:54:58.957Z,11.07
2023-08-23T07:57:25.774Z,11.45
2023-08-23T07:59:53.639Z,9.68
2023-08-23T08:02:20.567Z,9.93
2023-08-23T08:04:48.252Z,10.55
2023-08-23T08:07:26.654Z,11.57
2023-08-23T08:09:59.584Z,10.02
2023-08-23T08:12:26.493Z,9.93
2023-08-23T08:14:53.346Z,9.93
2023-08-23T08:17:20.203Z,8.98
2023-08-23T08:19:47.121Z,9.93
2023-08-23T08:22:14.266Z,9.30
2023-08-23T08:24:41.122Z,9.75
2023-08-23T08:27:08.245Z,9.25
2023-08-23T08:29:35.107Z,9.02
2023-08-23T08:32:02.783Z,9.60
2023-08-23T08:34:29.746Z,8.25
2023-08-23T08:36:56.570Z,7.20
2023-08-23T08:39:23.435Z,8.00
2023-08-23T08:41:50.682Z,8.65
2023-08-23T08:44:17.561Z,8.85
2023-08-23T08:46:44.459Z,8.02
2023-08-23T08:49:11.450Z,7.35
2023-08-23T08:51:42.724Z,7.60
2023-08-23T08:54:10.789Z,9.35
2023-08-23T08:56:38.023Z,7.93
2023-08-23T08:59:04.983Z,8.57
2023-08-23T09:01:35.769Z,6.30
2023-08-23T09:04:02.978Z,5.45
2023-08-23T09:06:31.258Z,5.35
2023-08-23T09:08:59.727Z,5.65
2023-08-23T09:11:26.697Z,6.95
2023-08-23T09:13:53.702Z,7.97
2023-08-23T09:16:20.652Z,8.45
2023-08-23T09:18:47.745Z,7.28
2023-08-23T09:21:15.215Z,6.63
2023-08-23T09:23:42.138Z,8.27
2023-08-23T09:26:09.413Z,7.43
2023-08-23T09:28:37.000Z,7.05
2023-08-23T09:31:03.934Z,6.53
2023-08-23T09:33:36.463Z,5.88
2023-08-23T09:36:03.402Z,5.32
2023-08-23T09:38:30.391Z,4.18
2023-08-23T09:40:58.403Z,4.95
2023-08-23T09:43:25.685Z,3.88
2023-08-23T09:45:53.024Z,3.10
2023-08-23T09:48:24.823Z,2.72
2023-08-23T09:50:52.698Z,3.80
2023-08-23T09:53:24.046Z,7.05
2023-08-23T09:55:51.781Z,5.18
2023-08-23T09:58:18.780Z,6.63
2023-08-23T10:00:50.274Z,6.30
2023-08-23T10:03:18.194Z,6.45
2023-08-23T10:05:46.533Z,6.18
2023-08-23T10:08:14.386Z,6.15
2023-08-23T10:10:44.025Z,5.28
2023-08-23T10:13:11.040Z,5.40
2023-08-23T10:15:40.196Z,5.93
2023-08-23T10:18:13.501Z,6.63
2023-08-23T10:20:42.320Z,5.32
2023-08-23T10:23:14.045Z,3.97
2023-08-23T10:25:43.456Z,5.80
2023-08-23T10:28:12.937Z,4.90
2023-08-23T10:30:44.935Z,5.20
2023-08-23T10:33:14.824Z,5.80
2023-08-23T10:35:44.480Z,5.28
2023-08-23T10:38:12.021Z,4.88
2023-08-23T10:40:43.482Z,5.32
2023-08-23T10:43:15.759Z,5.18
2023-08-23T10:46:07.567Z,5.60
2023-08-23T10:48:35.897Z,4.20
2023-08-23T10:51:03.065Z,4.47
2023-08-23T10:53:31.265Z,3.80
2023-08-23T10:56:01.616Z,3.30
2023-08-23T10:58:28.577Z,3.72
2023-08-23T11:00:56.819Z,2.55
2023-08-23T11:03:23.887Z,2.13
2023-08-23T11:05:51.056Z,2.53
2023-08-23T11:08:18.320Z,3.40
2023-08-23T11:10:45.376Z,2.40
2023-08-23T11:13:12.897Z,2.17
2023-08-23T11:15:42.381Z,2.25
2023-08-23T11:18:09.439Z,4.07
2023-08-23T11:20:36.483Z,3.72
2023-08-23T11:23:05.648Z,4.55
2023-08-23T11:25:34.549Z,3.97
2023-08-23T11:28:01.871Z,3.30
2023-08-23T11:30:28.975Z,3.17
2023-08-23T11:32:58.804Z,3.67
2023-08-23T11:35:25.768Z,2.20
2023-08-23T11:37:54.282Z,1.90
2023-08-23T11:40:24.435Z,3.05
2023-08-23T11:42:58.373Z,3.50
2023-08-23T11:45:37.494Z,2.67
2023-08-23T11:48:04.694Z,2.60
2023-08-23T11:50:32.113Z,3.17
2023-08-23T11:52:58.983Z,2.25
2023-08-23T11:55:26.725Z,2.90
2023-08-23T11:57:55.140Z,2.65
2023-08-23T12:00:23.043Z,2.15
2023-08-23T12:02:50.184Z,2.05
2023-08-23T12:05:20.531Z,3.13
2023-08-23T12:07:47.863Z,2.55
2023-08-23T12:10:15.364Z,3.08
2023-08-23T12:12:42.393Z,2.33
2023-08-23T12:15:09.870Z,2.38
2023-08-23T12:17:36.831Z,2.10
2023-08-23T12:20:08.953Z,1.83
2023-08-23T12:22:36.349Z,2.20
2023-08-23T12:25:03.389Z,2.53
2023-08-23T12:27:30.208Z,2.70
2023-08-23T12:29:57.014Z,1.92
2023-08-23T12:32:24.099Z,2.53
2023-08-23T12:34:52.216Z,2.55
2023-08-23T12:37:19.246Z,1.80
2023-08-23T12:39:46.128Z,1.98
2023-08-23T12:42:13.073Z,1.95
2023-08-23T12:44:40.094Z,2.40
2023-08-23T12:47:07.506Z,1.92
2023-08-23T12:49:34.383Z,2.25
2023-08-23T12:52:01.241Z,2.15
2023-08-23T12:54:29.521Z,2.20
2023-08-23T12:56:56.909Z,2.17
2023-08-23T12:59:23.921Z,2.20
2023-08-23T13:01:51.128Z,2.13
2023-08-23T13:04:19.394Z,2.00
2023-08-23T13:06:46.191Z,1.98
2023-08-23T13:09:13.139Z,2.10
2023-08-23T13:11:40.196Z,2.20
2023-08-23T13:14:07.106Z,2.00
2023-08-23T13:16:33.964Z,1.52
2023-08-23T13:19:00.847Z,1.80
2023-08-23T13:21:27.750Z,2.38
2023-08-23T13:23:54.569Z,2.20
2023-08-23T13:26:21.487Z,2.03
2023-08-23T13:28:48.376Z,1.58
2023-08-23T13:31:17.791Z,1.30
2023-08-23T13:33:48.102Z,1.80
2023-08-23T13:38:45.049Z,2.15
2023-08-23T13:41:11.992Z,1.50
2023-08-23T13:43:38.990Z,2.38
2023-08-23T13:46:06.217Z,1.98
2023-08-23T13:48:33.084Z,1.50
2023-08-23T13:51:00.415Z,1.40
2023-08-23T13:53:27.369Z,1.83
2023-08-23T13:55:54.210Z,1.58
2023-08-23T13:58:21.104Z,2.10
2023-08-23T14:00:48.061Z,1.40
2023-08-23T14:03:14.987Z,1.88
2023-08-23T14:05:41.871Z,1.98
2023-08-23T14:08:08.800Z,2.25
2023-08-23T14:10:35.989Z,1.63
2023-08-23T14:13:02.905Z,1.67
2023-08-23T14:15:29.821Z,2.17
2023-08-23T14:17:56.742Z,1.63
2023-08-23T14:20:24.531Z,1.50
2023-08-23T14:22:51.625Z,1.85
2023-08-23T14:25:18.541Z,1.95
2023-08-23T14:27:45.524Z,2.45
2023-08-23T14:30:12.898Z,3.13
2023-08-23T14:32:39.839Z,3.10
2023-08-23T14:35:07.360Z,2.67
2023-08-23T14:37:34.363Z,2.65
2023-08-23T14:40:01.507Z,2.30
2023-08-23T14:42:28.662Z,2.22
2023-08-23T14:44:57.458Z,1.98
2023-08-23T14:47:24.730Z,1.90
2023-08-23T14:49:52.277Z,2.55
2023-08-23T14:52:20.513Z,2.58
2023-08-23T14:54:48.807Z,2.10
2023-08-23T14:57:15.944Z,2.70
2023-08-23T14:59:43.733Z,3.13
2023-08-23T15:02:13.128Z,3.55
2023-08-23T15:04:47.224Z,2.65
2023-08-23T15:07:14.589Z,2.58
2023-08-23T15:09:41.440Z,2.97
2023-08-23T15:12:08.825Z,2.75
2023-08-23T15:14:35.787Z,2.85
2023-08-23T15:17:03.765Z,3.25
2023-08-23T15:19:30.919Z,3.95
2023-08-23T15:21:59.571Z,3.05
2023-08-23T15:24:30.933Z,3.75
2023-08-23T15:26:59.716Z,4.03
2023-08-23T15:29:38.733Z,4.25
2023-08-23T15:32:09.703Z,4.10
2023-08-23T15:34:36.610Z,3.83
2023-08-23T15:37:04.670Z,3.38
2023-08-23T15:39:31.716Z,3.75
2023-08-23T15:41:58.814Z,3.38
2023-08-23T15:44:26.122Z,3.50
2023-08-23T15:46:53.014Z,3.40
2023-08-23T15:49:20.030Z,3.88
2023-08-23T15:51:47.041Z,6.45
2023-08-23T15:54:15.306Z,13.93
2023-08-23T15:56:42.288Z,11.30
2023-08-23T15:59:10.522Z,12.00
2023-08-23T16:04:06.900Z,7.20
2023-08-23T16:06:33.834Z,6.90
2023-08-23T16:09:00.700Z,5.13
2023-08-23T16:11:28.895Z,4.63
2023-08-23T16:13:55.775Z,5.65
2023-08-23T16:16:22.741Z,4.22
2023-08-23T16:18:49.669Z,7.32
2023-08-23T16:21:16.758Z,6.70
2023-08-23T16:23:45.658Z,7.53
2023-08-23T16:26:12.858Z,7.33
2023-08-23T16:28:40.264Z,4.55
2023-08-23T16:31:07.404Z,4.32
2023-08-23T16:33:34.408Z,4.22
2023-08-23T16:36:01.522Z,3.10
2023-08-23T16:38:28.445Z,2.65
2023-08-23T16:40:58.280Z,2.63
2023-08-23T16:43:30.144Z,2.85
2023-08-23T16:45:57.354Z,2.25
2023-08-23T16:48:24.348Z,2.80
2023-08-23T16:50:51.334Z,2.53
2023-08-23T16:53:18.355Z,2.70
2023-08-23T16:55:45.563Z,3.03
2023-08-23T16:58:12.653Z,1.98
2023-08-23T17:00:40.019Z,1.83
2023-08-23T17:03:07.032Z,2.13
2023-08-23T17:05:35.075Z,1.73
2023-08-23T17:08:02.327Z,2.17
2023-08-23T17:10:29.182Z,2.42
2023-08-23T17:12:56.961Z,2.45
2023-08-23T17:15:23.825Z,2.60
2023-08-23T17:17:51.161Z,2.33
2023-08-23T17:20:18.324Z,2.42
2023-08-23T17:22:45.204Z,2.17
2023-08-23T17:25:12.268Z,2.28
2023-08-23T17:27:39.218Z,2.35
2023-08-23T17:30:06.757Z,2.05
2023-08-23T17:32:33.846Z,2.58
2023-08-23T17:35:00.919Z,2.17
2023-08-23T17:37:27.986Z,2.55
2023-08-23T17:39:54.920Z,2.53
2023-08-23T17:42:21.798Z,2.00
2023-08-23T17:44:48.690Z,2.38
2023-08-23T17:47:15.606Z,2.28
2023-08-23T17:49:42.470Z,2.08
2023-08-23T17:52:09.381Z,2.42
2023-08-23T17:54:36.310Z,2.40
2023-08-23T17:57:03.298Z,2.17
2023-08-23T17:59:30.945Z,2.30
2023-08-23T18:01:57.851Z,2.70
2023-08-23T18:04:26.146Z,2.42
2023-08-23T18:06:53.075Z,2.17
2023-08-23T18:09:20.015Z,2.83
2023-08-23T18:11:46.828Z,2.38
2023-08-23T18:14:13.682Z,2.58
2023-08-23T18:16:40.572Z,2.53
2023-08-23T18:19:07.540Z,2.30
2023-08-23T18:21:34.385Z,2.40
2023-08-23T18:24:01.261Z,2.03
2023-08-23T18:26:28.165Z,2.20
2023-08-23T18:28:56.334Z,1.95
2023-08-23T18:31:23.392Z,1.95
2023-08-23T18:33:50.327Z,2.53
2023-08-23T18:36:17.476Z,2.22
2023-08-23T18:38:44.376Z,2.80
2023-08-23T18:41:11.268Z,2.22
2023-08-23T18:43:38.193Z,2.53
2023-08-23T18:46:05.226Z,2.50
2023-08-23T18:48:32.063Z,1.98
2023-08-23T18:51:00.905Z,2.80
2023-08-23T18:53:28.199Z,2.45
2023-08-23T18:55:55.230Z,2.20
2023-08-23T18:58:22.200Z,2.58
2023-08-23T19:00:49.177Z,2.83
2023-08-23T19:03:18.080Z,2.47
2023-08-23T19:05:45.699Z,2.60
2023-08-23T19:08:13.202Z,2.00
2023-08-23T19:10:40.686Z,2.70
2023-08-23T19:13:07.635Z,2.90
2023-08-23T19:15:39.498Z,3.20
2023-08-23T19:18:07.180Z,2.67
2023-08-23T19:20:34.093Z,2.85
2023-08-23T19:23:00.933Z,3.67
2023-08-23T19:25:31.237Z,3.50
2023-08-23T19:28:01.532Z,3.65
2023-08-23T19:30:28.519Z,4.57
2023-08-23T19:32:55.663Z,3.42
2023-08-23T19:35:24.372Z,3.58
2023-08-23T19:37:52.024Z,2.88
2023-08-23T19:40:19.240Z,2.60
2023-08-23T19:42:46.079Z,2.70
2023-08-23T19:45:13.775Z,2.28
2023-08-23T19:47:41.627Z,2.53
2023-08-23T19:50:09.637Z,2.90
2023-08-23T19:52:36.547Z,2.55
2023-08-23T19:55:03.471Z,3.28
2023-08-23T19:57:34.535Z,3.05
2023-08-23T20:00:04.616Z,2.70
2023-08-23T20:02:41.689Z,2.60
2023-08-23T20:05:11.639Z,2.75
2023-08-23T20:07:39.654Z,2.92
2023-08-23T20:10:08.452Z,3.17
2023-08-23T20:12:36.510Z,2.83
2023-08-23T20:15:04.202Z,3.05
2023-08-23T20:17:31.438Z,3.33
2023-08-23T20:19:59.493Z,3.33
2023-08-23T20:22:27.012Z,3.55
2023-08-23T20:24:57.110Z,3.65
2023-08-23T20:27:24.584Z,3.42
2023-08-23T20:29:51.832Z,3.63
2023-08-23T20:32:19.371Z,3.47
2023-08-23T20:34:46.314Z,3.70
2023-08-23T20:37:13.388Z,3.58
2023-08-23T20:39:40.262Z,3.92
2023-08-23T20:42:07.413Z,3.08
2023-08-23T20:44:35.102Z,3.85
2023-08-23T20:47:02.560Z,3.97
2023-08-23T20:49:34.283Z,4.03
2023-08-23T20:52:03.247Z,4.25
2023-08-23T20:54:31.045Z,3.63
2023-08-23T20:56:58.251Z,4.50
2023-08-23T20:59:25.249Z,4.50
2023-08-23T21:01:52.370Z,4.55
2023-08-23T21:04:19.438Z,4.03
2023-08-23T21:06:46.429Z,4.97
2023-08-23T21:09:13.489Z,3.53
2023-08-23T21:11:43.678Z,3.65
2023-08-23T21:16:39.318Z,3.15
2023-08-23T21:19:07.333Z,3.53
2023-08-23T21:21:34.484Z,3.90
2023-08-23T21:24:01.646Z,3.55
2023-08-23T21:26:28.502Z,3.08
2023-08-23T21:28:56.090Z,3.40
2023-08-23T21:31:23.048Z,3.22
2023-08-23T21:33:50.019Z,2.90
2023-08-23T21:36:17.882Z,3.30
2023-08-23T21:38:45.659Z,2.88
2023-08-23T21:41:13.056Z,3.28
2023-08-23T21:43:40.054Z,3.17
2023-08-23T21:46:07.135Z,3.53
2023-08-23T21:48:34.106Z,3.83
2023-08-23T21:51:01.020Z,3.05
2023-08-23T21:53:27.983Z,3.30
2023-08-23T21:55:56.124Z,3.10
2023-08-23T21:58:27.101Z,3.47
2023-08-23T22:01:00.932Z,3.28
2023-08-23T22:03:38.870Z,3.38
2023-08-23T22:06:10.727Z,2.92
2023-08-23T22:08:39.457Z,3.35
2023-08-23T22:11:10.039Z,2.90
2023-08-23T22:13:37.076Z,3.38
2023-08-23T22:16:05.028Z,3.40
2023-08-23T22:18:31.958Z,3.47
2023-08-23T22:21:00.832Z,3.30
2023-08-23T22:23:27.967Z,3.67
2023-08-23T22:25:54.947Z,3.75
2023-08-23T22:28:21.878Z,3.83
2023-08-23T22:30:48.858Z,3.50
2023-08-23T22:33:15.738Z,3.65
2023-08-23T22:35:42.826Z,4.35
2023-08-23T22:38:09.736Z,3.85
2023-08-23T22:40:37.309Z,3.17
2023-08-23T22:43:04.555Z,4.70
2023-08-23T22:45:32.358Z,4.13
2023-08-23T22:48:01.041Z,3.38
2023-08-23T22:50:28.471Z,3.78
2023-08-23T22:52:55.806Z,4.03
2023-08-23T22:55:23.525Z,3.83
2023-08-23T22:57:50.664Z,3.65
2023-08-23T23:00:17.774Z,4.25
2023-08-23T23:02:45.466Z,3.83
2023-08-23T23:05:13.480Z,3.80
2023-08-23T23:07:40.730Z,4.63
2023-08-23T23:10:08.331Z,4.07
2023-08-23T23:15:20.698Z,4.13
2023-08-23T23:17:48.090Z,3.85
2023-08-23T23:20:16.645Z,3.40
2023-08-23T23:22:43.870Z,3.55
2023-08-23T23:25:11.297Z,4.10
2023-08-23T23:27:39.169Z,4.05
2023-08-23T23:30:07.122Z,3.60
2023-08-23T23:32:34.771Z,2.88
2023-08-23T23:35:01.853Z,3.42
2023-08-23T23:37:28.967Z,3.50
2023-08-23T23:39:56.061Z,3.20
2023-08-23T23:42:23.433Z,3.80
2023-08-23T23:44:50.325Z,3.25
2023-08-23T23:47:17.180Z,3.67
2023-08-23T23:49:44.045Z,3.58
2023-08-23T23:52:10.974Z,3.67
2023-08-23T23:54:38.374Z,3.95
2023-08-23T23:57:06.023Z,4.15
2023-08-23T23:59:33.002Z,3.58
